Neshkoro, Wisconsin
Current Conditions -  °F | °C
As of 6:56 PM on Saturday 25 Oct 2014 (Local Time) from KY50 Reporting Station
Overcast Overcast  
Wind Chill: 55°   Ceiling: 100
Heat Index: 55°   Visibility: 10mi
Dew Point: 28°   Wind: 7mph
Humidity: 36%   Direction: 270°W
Pressure: 29.94"   Gusts: NA
Location:  43.97°N, 89.22°W
Report Text: KY50 252356Z AUTO 27006KT 10SM OVC001 13/M02 A2994 RMK AO2 TSNO 53012 T01271022 10188 20127 SLP137
Loading
Personal Weather Stations






























Interactive Weather Map
Tropical Storm Tracking
New forecast layout! Learn more

10-Day Weather Forecast

Advertisements
Track Severe Weather on mobile